Time;durP1;ratioP1;P1;durP2;ratioP2;P2;SDS_P1;SDS_P2;PMS_P1;PMS_P2;Temp;Humidity;BMP_temperature;BMP_pressure;BME280_temperature;BME280_humidity;BME280_pressure;Samples;Min_cycle;Max_cycle;Signal;HPM_P1;HPM_P2
2022/02/28 00:01:22;;;;;;;2.03;1.50;;;2.50;99.90;;;;;;6316071;28;20275;-75
2022/02/28 00:04:28;;;;;;;1.63;1.30;;;2.50;99.90;;;;;;6314208;28;20298;-75
2022/02/28 00:07:34;;;;;;;1.30;1.20;;;2.40;99.90;;;;;;6315156;28;20290;-75
2022/02/28 00:10:40;;;;;;;2.37;1.27;;;2.40;99.90;;;;;;6314843;28;20287;-76
2022/02/28 00:13:46;;;;;;;1.60;1.30;;;2.40;99.90;;;;;;6314855;28;20298;-76
2022/02/28 00:16:53;;;;;;;1.23;1.23;;;2.30;99.90;;;;;;6314740;28;20458;-75
2022/02/28 00:19:58;;;;;;;1.50;1.40;;;2.30;99.90;;;;;;6319787;28;20308;-75
2022/02/28 00:23:04;;;;;;;2.17;1.40;;;2.30;99.90;;;;;;6339649;28;20297;-76
2022/02/28 00:26:13;;;;;;;1.20;1.20;;;2.30;99.90;;;;;;6339322;28;20270;-76
2022/02/28 00:29:18;;;;;;;1.80;1.23;;;2.30;99.90;;;;;;6339180;28;20605;-75
2022/02/28 00:32:25;;;;;;;1.10;1.10;;;2.30;99.90;;;;;;6338761;28;20308;-76
2022/02/28 00:35:30;;;;;;;1.23;1.17;;;2.20;99.90;;;;;;6339557;28;20432;-76
2022/02/28 00:38:39;;;;;;;2.17;1.17;;;2.20;99.90;;;;;;6338335;28;20294;-76
2022/02/28 00:41:45;;;;;;;1.40;1.30;;;2.20;99.90;;;;;;6338824;28;20277;-77
2022/02/28 00:44:51;;;;;;;1.97;1.37;;;2.20;99.90;;;;;;6339156;28;20293;-76
2022/02/28 00:47:56;;;;;;;1.80;1.00;;;2.20;99.90;;;;;;6338467;28;20298;-76
2022/02/28 00:51:02;;;;;;;1.27;1.27;;;2.10;99.90;;;;;;6339019;28;20451;-76
2022/02/28 00:54:08;;;;;;;1.20;1.20;;;2.00;99.90;;;;;;6339320;28;20290;-76
2022/02/28 00:57:15;;;;;;;3.33;1.20;;;2.00;99.90;;;;;;6321559;28;20274;-76
2022/02/28 01:00:23;;;;;;;1.20;1.20;;;2.00;99.90;;;;;;6338183;28;20547;-77
2022/02/28 01:03:29;;;;;;;2.10;1.20;;;1.90;99.90;;;;;;6338308;28;20298;-76
2022/02/28 01:06:35;;;;;;;1.17;1.03;;;1.90;99.90;;;;;;6338491;28;20270;-76
2022/02/28 01:09:41;;;;;;;4.33;1.20;;;1.80;99.90;;;;;;6338826;28;20290;-76
2022/02/28 01:12:47;;;;;;;1.33;1.23;;;1.70;99.90;;;;;;6338560;28;20289;-76
2022/02/28 01:15:54;;;;;;;1.30;1.20;;;1.70;99.90;;;;;;6339623;28;20281;-77
2022/02/28 01:18:59;;;;;;;1.33;1.10;;;1.70;99.90;;;;;;6339195;28;20536;-77
2022/02/28 01:22:09;;;;;;;3.50;1.10;;;1.70;99.90;;;;;;6327943;28;20609;-77
2022/02/28 01:25:15;;;;;;;2.23;1.40;;;1.60;99.90;;;;;;6328813;28;20550;-76
2022/02/28 01:28:22;;;;;;;0.90;0.90;;;1.60;99.90;;;;;;6313425;28;20294;-76
2022/02/28 01:31:29;;;;;;;1.50;1.17;;;1.50;99.90;;;;;;6313396;28;20602;-76
2022/02/28 01:34:34;;;;;;;2.20;1.30;;;1.50;99.90;;;;;;6311458;28;20472;-76
2022/02/28 01:37:41;;;;;;;2.27;1.23;;;1.50;99.90;;;;;;6312128;28;20294;-77
2022/02/28 01:40:46;;;;;;;1.67;1.27;;;1.40;99.90;;;;;;6313361;28;20274;-77
2022/02/28 01:43:53;;;;;;;1.30;1.30;;;1.40;99.90;;;;;;6313002;28;20305;-76
2022/02/28 01:47:00;;;;;;;2.70;1.23;;;1.40;99.90;;;;;;6311720;28;20273;-77
2022/02/28 01:50:08;;;;;;;1.00;1.00;;;1.40;99.90;;;;;;6312139;28;20358;-76
2022/02/28 01:53:15;;;;;;;1.00;1.00;;;1.40;99.90;;;;;;6311153;28;20301;-76
2022/02/28 01:56:21;;;;;;;1.33;1.20;;;1.40;99.90;;;;;;6311832;28;20447;-76
2022/02/28 01:59:28;;;;;;;1.47;1.20;;;1.40;99.90;;;;;;6328198;28;20566;-76
2022/02/28 02:02:33;;;;;;;1.37;1.30;;;1.40;99.90;;;;;;6311627;28;20293;-77
2022/02/28 02:05:40;;;;;;;1.47;1.13;;;1.40;99.90;;;;;;6313287;28;20274;-76
2022/02/28 02:08:46;;;;;;;1.03;1.00;;;1.40;99.90;;;;;;6311065;28;20424;-77
2022/02/28 02:11:53;;;;;;;2.30;1.20;;;1.30;99.90;;;;;;6311396;28;20294;-76
2022/02/28 02:15:00;;;;;;;1.10;1.10;;;1.30;99.90;;;;;;6310393;28;20283;-76
2022/02/28 02:18:06;;;;;;;1.00;1.00;;;1.20;99.90;;;;;;6311449;28;20318;-76
2022/02/28 02:21:15;;;;;;;1.00;1.00;;;1.20;99.90;;;;;;6311475;28;20592;-76
2022/02/28 02:24:20;;;;;;;1.30;1.20;;;1.10;99.90;;;;;;6310854;28;20581;-76
2022/02/28 02:27:26;;;;;;;1.30;1.20;;;1.10;99.90;;;;;;6293860;28;20489;-76
2022/02/28 02:30:32;;;;;;;3.10;1.10;;;1.10;99.90;;;;;;6294419;28;20458;-76
2022/02/28 02:33:42;;;;;;;3.47;1.47;;;1.10;99.90;;;;;;6307880;28;20297;-76
2022/02/28 02:36:50;;;;;;;2.27;1.10;;;1.10;99.90;;;;;;6319133;28;20277;-76
2022/02/28 02:39:55;;;;;;;1.53;1.23;;;1.00;99.90;;;;;;6336964;28;20569;-76
2022/02/28 02:43:01;;;;;;;1.00;1.00;;;1.00;99.90;;;;;;6318076;28;20305;-76
2022/02/28 02:46:07;;;;;;;1.30;1.30;;;1.00;99.90;;;;;;6336557;28;20273;-76
2022/02/28 02:49:13;;;;;;;1.60;1.47;;;0.90;99.90;;;;;;6318496;28;20589;-76
2022/02/28 02:52:20;;;;;;;2.67;1.30;;;0.90;99.90;;;;;;6335845;28;20296;-76
2022/02/28 02:55:27;;;;;;;1.80;1.00;;;0.90;99.90;;;;;;6319313;28;20272;-76
2022/02/28 02:58:34;;;;;;;1.70;1.00;;;0.90;99.90;;;;;;6334989;28;20310;-76
2022/02/28 03:01:40;;;;;;;1.10;1.10;;;0.90;99.90;;;;;;6318835;28;20268;-76
2022/02/28 03:04:46;;;;;;;1.57;1.37;;;0.90;99.90;;;;;;6318632;28;20297;-75
2022/02/28 03:07:53;;;;;;;1.13;1.00;;;0.90;99.90;;;;;;6335353;28;20292;-76
2022/02/28 03:11:01;;;;;;;1.30;1.23;;;0.80;99.90;;;;;;6319385;28;20267;-76
2022/02/28 03:14:06;;;;;;;0.80;0.80;;;0.80;99.90;;;;;;6318460;28;20483;-76
2022/02/28 03:17:13;;;;;;;1.10;1.10;;;0.80;99.90;;;;;;6317620;28;20277;-76
2022/02/28 03:20:20;;;;;;;0.90;0.90;;;0.70;99.90;;;;;;6318799;28;20300;-76
2022/02/28 03:23:27;;;;;;;1.83;1.10;;;0.70;99.90;;;;;;6319433;28;20300;-75
2022/02/28 03:26:40;;;;;;;0.90;0.90;;;0.60;99.90;;;;;;6323696;28;20272;-77
2022/02/28 03:29:45;;;;;;;1.50;0.97;;;0.50;99.90;;;;;;6323544;28;20314;-76
2022/02/28 03:32:51;;;;;;;1.00;1.00;;;0.50;99.90;;;;;;6339630;28;20300;-76
2022/02/28 03:35:57;;;;;;;1.30;1.30;;;0.40;99.90;;;;;;6323873;28;20272;-76
2022/02/28 03:39:04;;;;;;;2.30;1.20;;;0.40;99.90;;;;;;6322876;28;20305;-75
2022/02/28 03:42:10;;;;;;;4.10;1.30;;;0.30;99.90;;;;;;6322885;28;20292;-76
2022/02/28 03:45:18;;;;;;;1.30;1.30;;;0.30;99.90;;;;;;6340707;28;20280;-76
2022/02/28 03:48:24;;;;;;;1.00;1.00;;;0.20;99.90;;;;;;6322914;28;20299;-76
2022/02/28 03:51:52;;;;;;;0.93;0.93;;;0.20;99.90;;;;;;6341310;28;20276;-76
2022/02/28 03:55:07;;;;;;;1.30;1.20;;;0.10;99.90;;;;;;6339277;28;20624;-76
2022/02/28 03:58:14;;;;;;;1.07;1.00;;;0.10;99.90;;;;;;6339365;28;20603;-76
2022/02/28 04:01:19;;;;;;;1.07;1.07;;;0.20;99.90;;;;;;6339990;28;20556;-76
2022/02/28 04:04:30;;;;;;;1.10;1.03;;;0.10;99.90;;;;;;6337619;28;20303;-76
2022/02/28 04:07:36;;;;;;;3.10;1.30;;;0.20;99.90;;;;;;6322267;28;20467;-76
2022/02/28 04:10:43;;;;;;;1.40;1.30;;;0.30;99.90;;;;;;6339424;28;20268;-75
2022/02/28 04:13:48;;;;;;;1.43;1.27;;;0.30;99.90;;;;;;6340201;28;20495;-76
2022/02/28 04:16:53;;;;;;;2.70;1.40;;;0.20;99.90;;;;;;6339228;28;20271;-75
2022/02/28 04:20:25;;;;;;;3.70;1.20;;;0.20;99.90;;;;;;6310079;28;20301;-76
2022/02/28 04:23:31;;;;;;;1.43;1.33;;;0.10;99.90;;;;;;6301474;28;20306;-76
2022/02/28 04:26:38;;;;;;;1.37;1.27;;;0.10;99.90;;;;;;6313812;28;20265;-76
2022/02/28 04:29:44;;;;;;;1.37;1.30;;;0.10;99.90;;;;;;6314250;28;20559;-76
2022/02/28 04:32:52;;;;;;;5.90;1.40;;;0.10;99.90;;;;;;6329677;28;20292;-76
2022/02/28 04:35:57;;;;;;;1.13;1.13;;;0.00;99.90;;;;;;6313195;28;20274;-76
2022/02/28 04:39:04;;;;;;;1.27;1.27;;;0.00;99.90;;;;;;6313010;28;20581;-77
2022/02/28 04:42:13;;;;;;;1.10;1.10;;;-0.10;99.90;;;;;;6313467;28;20269;-76
2022/02/28 04:45:19;;;;;;;1.57;1.23;;;-0.10;99.90;;;;;;6313547;28;20281;-77
2022/02/28 04:48:28;;;;;;;2.87;1.33;;;-0.10;99.90;;;;;;6312711;28;20301;-78
2022/02/28 04:51:40;;;;;;;3.87;1.20;;;-0.10;99.90;;;;;;6314796;28;20273;-75
2022/02/28 04:54:49;;;;;;;2.50;1.50;;;-0.20;99.90;;;;;;6312862;28;20303;-76
2022/02/28 04:57:58;;;;;;;1.40;1.40;;;-0.20;99.90;;;;;;6313238;28;20299;-76
2022/02/28 05:01:22;;;;;;;1.40;1.40;;;-0.20;99.90;;;;;;6314489;28;20272;-76
2022/02/28 05:04:36;;;;;;;3.43;1.30;;;-0.20;99.90;;;;;;6311933;28;20304;-76
2022/02/28 05:07:45;;;;;;;1.10;1.10;;;-0.20;99.90;;;;;;6312083;28;20289;-76
2022/02/28 05:10:50;;;;;;;1.30;1.20;;;-0.30;99.90;;;;;;6313410;28;20272;-75
2022/02/28 05:13:59;;;;;;;5.83;1.50;;;-0.30;99.90;;;;;;6328909;28;20388;-75
2022/02/28 05:17:06;;;;;;;1.23;1.23;;;-0.30;99.90;;;;;;6311462;28;20275;-76
2022/02/28 05:20:15;;;;;;;1.40;1.30;;;-0.30;99.90;;;;;;6313972;28;20301;-76
2022/02/28 05:23:21;;;;;;;5.60;1.60;;;-0.30;99.90;;;;;;6313294;28;20463;-76
2022/02/28 05:26:28;;;;;;;2.23;1.40;;;-0.30;99.90;;;;;;6312811;28;20280;-75
2022/02/28 05:29:34;;;;;;;3.60;1.33;;;-0.40;99.90;;;;;;6313190;28;20292;-75
2022/02/28 05:32:41;;;;;;;3.20;1.40;;;-0.40;99.90;;;;;;6329073;28;20295;-75
2022/02/28 05:36:02;;;;;;;3.13;1.93;;;-0.40;99.90;;;;;;6328442;28;20291;-76
2022/02/28 05:39:28;;;;;;;5.97;1.53;;;-0.40;99.90;;;;;;6312583;28;20293;-76
2022/02/28 05:42:34;;;;;;;1.63;1.30;;;-0.40;99.90;;;;;;6311259;28;20294;-75
2022/02/28 05:45:41;;;;;;;3.23;1.37;;;-0.40;99.90;;;;;;6312758;28;20279;-75
2022/02/28 05:49:06;;;;;;;1.43;1.40;;;-0.40;99.90;;;;;;6328092;28;20296;-76
2022/02/28 05:52:12;;;;;;;3.83;1.30;;;-0.40;99.90;;;;;;6311449;28;20450;-76
2022/02/28 05:55:18;;;;;;;1.37;1.37;;;-0.40;99.90;;;;;;6313352;28;20295;-76
2022/02/28 05:58:29;;;;;;;1.43;1.43;;;-0.40;99.90;;;;;;6312568;28;20295;-76
2022/02/28 06:01:37;;;;;;;1.60;1.20;;;-0.40;99.90;;;;;;6311995;28;20277;-76
2022/02/28 06:04:42;;;;;;;3.10;1.40;;;-0.50;99.90;;;;;;6312867;28;20579;-76
2022/02/28 06:07:48;;;;;;;4.10;1.50;;;-0.50;99.90;;;;;;6312066;28;20287;-76
2022/02/28 06:10:53;;;;;;;1.40;1.30;;;-0.50;99.90;;;;;;6312184;28;20270;-76
2022/02/28 06:13:59;;;;;;;2.90;1.30;;;-0.40;99.90;;;;;;6311842;28;20302;-76
2022/02/28 06:17:07;;;;;;;1.83;1.40;;;-0.40;99.90;;;;;;6311287;28;20293;-76
2022/02/28 06:20:13;;;;;;;1.37;1.30;;;-0.40;99.90;;;;;;6311726;28;20299;-76
2022/02/28 06:23:19;;;;;;;1.97;1.27;;;-0.40;99.90;;;;;;6311479;28;20295;-76
2022/02/28 06:26:24;;;;;;;2.37;1.37;;;-0.40;99.90;;;;;;6312561;28;20274;-76
2022/02/28 06:29:31;;;;;;;1.60;1.60;;;-0.40;99.90;;;;;;6311761;28;20227;-76
2022/02/28 06:32:38;;;;;;;1.23;1.23;;;-0.30;99.90;;;;;;6311136;28;20294;-76
2022/02/28 06:35:48;;;;;;;1.73;1.60;;;-0.30;99.90;;;;;;6311512;28;20288;-76
2022/02/28 06:38:53;;;;;;;1.60;1.50;;;-0.30;99.90;;;;;;6311937;28;20475;-76
2022/02/28 06:41:59;;;;;;;3.80;1.60;;;-0.30;99.90;;;;;;6312282;28;20269;-76
2022/02/28 06:45:06;;;;;;;2.87;1.50;;;-0.30;99.90;;;;;;6311753;28;20303;-76
2022/02/28 06:48:13;;;;;;;1.90;1.80;;;-0.30;99.90;;;;;;6310975;28;20297;-76
2022/02/28 06:51:19;;;;;;;5.80;2.00;;;-0.30;99.90;;;;;;6312302;28;20276;-76
2022/02/28 06:54:24;;;;;;;3.33;1.50;;;-0.20;99.90;;;;;;6311256;28;20590;-76
2022/02/28 06:57:29;;;;;;;1.50;1.40;;;-0.20;99.90;;;;;;6310355;28;20295;-76
2022/02/28 07:00:34;;;;;;;3.60;1.57;;;-0.10;99.90;;;;;;6312241;28;20274;-78
2022/02/28 07:03:44;;;;;;;2.47;1.50;;;-0.10;99.90;;;;;;6309468;28;20300;-75
2022/02/28 07:06:49;;;;;;;1.80;1.70;;;0.00;99.90;;;;;;6311261;28;20276;-75
2022/02/28 07:09:54;;;;;;;1.40;1.30;;;0.00;99.90;;;;;;6310903;28;20295;-77
2022/02/28 07:13:00;;;;;;;2.10;1.73;;;0.10;99.90;;;;;;6311413;28;20304;-76
2022/02/28 07:16:06;;;;;;;2.70;1.50;;;0.10;99.90;;;;;;6311938;28;20284;-75
2022/02/28 07:19:14;;;;;;;4.00;1.73;;;0.10;99.90;;;;;;6311187;28;20294;-76
2022/02/28 07:22:20;;;;;;;1.53;1.40;;;0.10;99.90;;;;;;6310439;28;20315;-75
2022/02/28 07:25:26;;;;;;;1.90;1.80;;;0.20;99.90;;;;;;6311591;28;20265;-76
2022/02/28 07:28:31;;;;;;;5.20;1.50;;;0.20;99.90;;;;;;6312155;28;20386;-75
2022/02/28 07:31:49;;;;;;;2.43;1.37;;;0.20;99.90;;;;;;6311172;28;20472;-75
2022/02/28 07:34:56;;;;;;;4.20;1.40;;;0.20;99.90;;;;;;6311166;28;20307;-76
2022/02/28 07:38:01;;;;;;;2.60;1.40;;;0.30;99.90;;;;;;6310842;28;20572;-76
2022/02/28 07:41:07;;;;;;;3.43;1.50;;;0.30;99.90;;;;;;6311175;28;20273;-76
2022/02/28 07:44:13;;;;;;;5.90;1.60;;;0.40;99.90;;;;;;6310719;28;20305;-75
2022/02/28 07:47:18;;;;;;;3.90;1.40;;;0.40;99.90;;;;;;6310636;28;20559;-76
2022/02/28 07:50:25;;;;;;;1.30;1.30;;;0.40;99.90;;;;;;6311041;28;20280;-75
2022/02/28 07:53:31;;;;;;;2.70;1.60;;;0.50;99.90;;;;;;6311107;28;20491;-76
2022/02/28 07:56:36;;;;;;;3.50;1.43;;;0.60;99.90;;;;;;6310298;28;20294;-76
2022/02/28 07:59:41;;;;;;;2.57;1.43;;;0.70;99.90;;;;;;6310965;28;20292;-76
2022/02/28 08:02:47;;;;;;;1.50;1.40;;;0.70;99.90;;;;;;6310184;28;20290;-76
2022/02/28 08:05:53;;;;;;;1.70;1.60;;;0.60;99.90;;;;;;6310681;28;20269;-76
2022/02/28 08:09:02;;;;;;;3.43;1.70;;;0.70;99.90;;;;;;6311243;28;20316;-76
2022/02/28 08:12:08;;;;;;;4.57;1.30;;;0.70;99.90;;;;;;6314421;28;20283;-76
2022/02/28 08:15:14;;;;;;;4.93;1.43;;;0.80;99.90;;;;;;6314757;28;20271;-76
2022/02/28 08:18:20;;;;;;;6.93;1.63;;;0.80;99.90;;;;;;6313416;28;20297;-76
2022/02/28 08:21:27;;;;;;;4.00;1.40;;;0.90;99.90;;;;;;6314642;28;20317;-76
2022/02/28 08:24:32;;;;;;;2.17;1.30;;;1.00;99.90;;;;;;6315134;28;20306;-76
2022/02/28 08:27:38;;;;;;;6.43;1.60;;;0.90;99.90;;;;;;6314990;28;20297;-75
2022/02/28 08:30:44;;;;;;;5.33;1.70;;;0.90;99.90;;;;;;6315104;28;20270;-76
2022/02/28 08:33:51;;;;;;;3.53;1.60;;;1.10;99.90;;;;;;6315150;28;20304;-77
2022/02/28 08:36:58;;;;;;;1.63;1.50;;;1.20;99.90;;;;;;6315171;28;20296;-77
2022/02/28 08:40:06;;;;;;;2.47;1.80;;;1.10;99.90;;;;;;6339621;28;20273;-77
2022/02/28 08:43:15;;;;;;;4.10;1.90;;;1.10;99.90;;;;;;6341179;28;20295;-77
2022/02/28 08:46:21;;;;;;;1.83;1.30;;;1.10;99.90;;;;;;6338862;28;20273;-77
2022/02/28 08:49:26;;;;;;;2.17;1.30;;;1.20;99.90;;;;;;6339182;28;20297;-76
2022/02/28 08:52:33;;;;;;;2.10;1.50;;;1.20;99.90;;;;;;6338969;28;20309;-77
2022/02/28 08:55:39;;;;;;;1.73;1.40;;;1.20;99.90;;;;;;6339859;28;20553;-76
2022/02/28 08:58:44;;;;;;;3.37;1.47;;;1.20;99.90;;;;;;6339397;28;20304;-77
2022/02/28 09:01:50;;;;;;;2.17;1.50;;;1.20;99.90;;;;;;6340201;28;20278;-77
2022/02/28 09:04:55;;;;;;;2.13;1.50;;;1.30;99.90;;;;;;6338732;28;20289;-76
2022/02/28 09:08:02;;;;;;;10.60;1.80;;;1.20;99.90;;;;;;6339468;28;20325;-76
2022/02/28 09:11:10;;;;;;;1.57;1.40;;;1.40;99.90;;;;;;6340240;28;20271;-76
2022/02/28 09:14:16;;;;;;;2.00;1.90;;;1.30;99.90;;;;;;6339314;28;20298;-76
2022/02/28 09:17:21;;;;;;;2.80;1.53;;;1.30;99.90;;;;;;6338189;28;20309;-78
2022/02/28 09:20:26;;;;;;;2.63;1.50;;;1.40;99.90;;;;;;6338674;28;20446;-77
2022/02/28 09:23:33;;;;;;;1.30;1.30;;;1.50;99.90;;;;;;6339208;28;20290;-78
2022/02/28 09:26:39;;;;;;;4.37;1.67;;;1.50;99.90;;;;;;6339531;28;20270;-77
2022/02/28 09:29:47;;;;;;;2.13;1.33;;;1.60;99.90;;;;;;6337791;28;20297;-77
2022/02/28 09:32:52;;;;;;;2.27;1.73;;;1.50;99.90;;;;;;6338235;28;20300;-77
2022/02/28 09:35:58;;;;;;;4.83;1.73;;;1.60;99.90;;;;;;6338819;28;20312;-77
2022/02/28 09:39:07;;;;;;;1.77;1.67;;;1.60;99.90;;;;;;6338741;28;20599;-77
2022/02/28 09:42:34;;;;;;;2.53;1.37;;;1.70;99.90;;;;;;6338724;28;20296;-77
2022/02/28 09:45:58;;;;;;;3.63;1.70;;;1.90;99.90;;;;;;6338181;28;20512;-77
2022/02/28 09:49:42;;;;;;;1.37;1.33;;;1.90;99.90;;;;;;6338587;28;20316;-77
2022/02/28 09:53:07;;;;;;;3.27;1.50;;;1.90;99.90;;;;;;6339836;28;20289;-77
2022/02/28 09:56:46;;;;;;;8.20;1.80;;;1.90;99.90;;;;;;6295738;28;20265;-76
2022/02/28 10:00:19;;;;;;;1.70;1.60;;;1.90;99.90;;;;;;6329895;28;20277;-76
2022/02/28 10:03:28;;;;;;;3.67;1.50;;;1.90;99.90;;;;;;6336636;28;20294;-76
2022/02/28 10:06:34;;;;;;;3.17;1.93;;;2.10;99.90;;;;;;6319432;28;20293;-77
2022/02/28 10:09:40;;;;;;;3.67;1.33;;;2.20;99.90;;;;;;6337320;28;20301;-77
2022/02/28 10:12:47;;;;;;;3.73;1.60;;;2.30;99.90;;;;;;6337681;28;20292;-76
2022/02/28 10:15:53;;;;;;;1.33;1.23;;;2.30;99.90;;;;;;6337927;28;20266;-75
2022/02/28 10:18:59;;;;;;;1.60;1.20;;;2.40;99.90;;;;;;6337254;28;20331;-76
2022/02/28 10:22:07;;;;;;;3.17;1.40;;;2.50;99.90;;;;;;6336914;28;20294;-77
2022/02/28 10:25:31;;;;;;;3.23;1.30;;;2.40;99.90;;;;;;6337393;28;20269;-77
2022/02/28 10:28:40;;;;;;;3.00;1.30;;;2.50;99.90;;;;;;6319068;28;20303;-77
2022/02/28 10:32:06;;;;;;;20.57;1.30;;;2.50;99.90;;;;;;6338276;28;20274;-77
2022/02/28 10:39:26;;;;;;;1.43;1.33;;;2.60;99.90;;;;;;6337353;28;20299;-76
2022/02/28 10:42:45;;;;;;;2.13;1.30;;;2.60;99.90;;;;;;6336668;28;20299;-76
2022/02/28 10:45:52;;;;;;;2.80;1.30;;;2.70;99.90;;;;;;6337317;28;20274;-76
2022/02/28 10:49:02;;;;;;;2.37;1.37;;;2.90;99.90;;;;;;6336542;28;20301;-76
2022/02/28 10:52:09;;;;;;;3.30;1.30;;;2.90;99.90;;;;;;6336521;28;20272;-76
2022/02/28 10:55:15;;;;;;;1.23;1.13;;;2.90;99.50;;;;;;6337346;28;20271;-76
2022/02/28 10:58:24;;;;;;;7.40;1.10;;;3.10;98.80;;;;;;6336607;28;20299;-77
2022/02/28 11:01:39;;;;;;;1.27;1.27;;;3.00;99.50;;;;;;6336672;28;20270;-77
2022/02/28 11:04:45;;;;;;;1.83;1.83;;;3.00;99.00;;;;;;6336220;28;20606;-77
2022/02/28 11:07:52;;;;;;;1.53;1.43;;;3.10;99.00;;;;;;6336288;28;20295;-77
2022/02/28 11:11:09;;;;;;;1.33;1.30;;;3.20;98.20;;;;;;6323206;28;20276;-77
2022/02/28 11:14:14;;;;;;;1.70;1.50;;;3.30;97.40;;;;;;6292389;28;20293;-76
2022/02/28 11:17:27;;;;;;;1.53;1.43;;;3.40;97.40;;;;;;6285945;28;20297;-77
2022/02/28 11:20:33;;;;;;;2.17;2.07;;;3.30;98.10;;;;;;6294129;28;20558;-77
2022/02/28 11:23:39;;;;;;;2.80;1.90;;;3.40;98.30;;;;;;6298485;28;20591;-76
2022/02/28 11:26:44;;;;;;;5.37;1.73;;;3.50;97.90;;;;;;6286122;28;20271;-76
2022/02/28 11:29:53;;;;;;;4.40;1.63;;;3.50;98.00;;;;;;6286106;28;20300;-76
2022/02/28 11:33:07;;;;;;;8.83;1.77;;;3.50;98.00;;;;;;6300698;28;20316;-76
2022/02/28 11:36:15;;;;;;;4.57;1.47;;;3.50;98.30;;;;;;6286153;28;20268;-76
2022/02/28 11:39:30;;;;;;;3.17;1.33;;;3.50;98.90;;;;;;6286006;28;20297;-76
2022/02/28 11:43:12;;;;;;;3.83;1.60;;;3.60;98.20;;;;;;6285449;28;20564;-76
2022/02/28 11:46:21;;;;;;;3.83;1.60;;;3.60;98.00;;;;;;6290578;28;20590;-77
2022/02/28 11:49:31;;;;;;;1.30;1.20;;;3.80;97.50;;;;;;6310631;28;20302;-77
2022/02/28 11:52:38;;;;;;;4.40;3.73;;;3.70;97.90;;;;;;6315219;28;20293;-76
2022/02/28 11:55:45;;;;;;;1.50;1.50;;;3.80;97.70;;;;;;6315385;28;20268;-77
2022/02/28 11:58:54;;;;;;;1.40;1.30;;;3.90;97.60;;;;;;6315320;28;20297;-76
2022/02/28 12:02:03;;;;;;;4.13;1.40;;;3.90;97.10;;;;;;6315124;28;20277;-77
2022/02/28 12:05:41;;;;;;;4.77;1.70;;;3.90;98.10;;;;;;6314264;28;20275;-77
2022/02/28 12:08:52;;;;;;;1.87;1.53;;;3.90;98.00;;;;;;6315124;28;20296;-76
2022/02/28 12:12:31;;;;;;;1.60;1.50;;;3.90;98.30;;;;;;6315241;28;20269;-77
2022/02/28 12:15:37;;;;;;;1.80;1.30;;;4.10;97.10;;;;;;6315077;28;20276;-77
2022/02/28 12:18:42;;;;;;;2.97;1.33;;;4.10;96.60;;;;;;6314183;28;20297;-77
2022/02/28 12:22:00;;;;;;;4.60;1.50;;;4.10;94.80;;;;;;6315013;28;20487;-77
2022/02/28 12:25:06;;;;;;;5.07;1.37;;;4.20;94.60;;;;;;6314442;28;20276;-77
2022/02/28 12:28:22;;;;;;;4.23;1.40;;;4.20;94.60;;;;;;6314222;28;20478;-77
2022/02/28 12:31:40;;;;;;;2.40;1.20;;;4.30;93.40;;;;;;6313169;28;20272;-77
2022/02/28 12:34:57;;;;;;;5.70;1.80;;;4.40;92.50;;;;;;6314031;28;20455;-78
2022/02/28 12:38:06;;;;;;;5.07;1.60;;;4.40;93.40;;;;;;6314833;28;20297;-77
2022/02/28 12:41:18;;;;;;;1.70;1.30;;;4.50;93.00;;;;;;6314144;28;20293;-78
2022/02/28 12:44:24;;;;;;;4.60;1.60;;;4.70;92.80;;;;;;6314628;28;20305;-77
2022/02/28 12:47:29;;;;;;;1.53;1.50;;;4.70;92.70;;;;;;6314414;28;20291;-78
2022/02/28 12:50:35;;;;;;;5.87;1.50;;;4.60;92.70;;;;;;6315153;28;20273;-77
2022/02/28 12:53:43;;;;;;;2.37;1.60;;;4.50;94.00;;;;;;6314274;28;20305;-77
2022/02/28 12:56:56;;;;;;;7.87;1.40;;;4.60;93.80;;;;;;6314127;28;20282;-77
2022/02/28 13:00:01;;;;;;;1.90;1.40;;;4.50;95.00;;;;;;6313673;28;20496;-77
2022/02/28 13:03:07;;;;;;;2.27;1.60;;;4.50;94.00;;;;;;6314470;28;20299;-77
2022/02/28 13:06:15;;;;;;;4.40;1.57;;;4.50;94.00;;;;;;6314290;28;20549;-77
2022/02/28 13:09:22;;;;;;;3.87;1.50;;;4.60;93.80;;;;;;6314324;28;20469;-77
2022/02/28 13:12:28;;;;;;;2.23;1.40;;;4.60;92.90;;;;;;6288932;28;20299;-78
2022/02/28 13:15:34;;;;;;;4.30;1.53;;;4.50;93.40;;;;;;6272681;28;20270;-77
2022/02/28 13:18:40;;;;;;;7.53;1.70;;;4.50;93.80;;;;;;6288868;28;20591;-78
2022/02/28 13:21:53;;;;;;;3.37;1.87;;;4.50;93.40;;;;;;6288994;28;20331;-76
2022/02/28 13:24:59;;;;;;;2.07;1.60;;;4.50;93.80;;;;;;6264856;28;20471;-76
2022/02/28 13:28:05;;;;;;;3.23;2.00;;;4.50;94.10;;;;;;6263198;28;20439;-76
2022/02/28 13:31:11;;;;;;;2.63;1.60;;;4.50;94.40;;;;;;6263097;28;20463;-76
2022/02/28 13:34:18;;;;;;;10.53;1.87;;;4.50;94.70;;;;;;6263223;28;20307;-76
2022/02/28 13:37:26;;;;;;;3.40;1.70;;;4.50;95.30;;;;;;6263299;28;20356;-77
2022/02/28 13:40:34;;;;;;;1.90;1.80;;;4.50;95.30;;;;;;6264597;28;20299;-77
2022/02/28 13:43:42;;;;;;;3.03;1.70;;;4.50;95.30;;;;;;6263032;28;20299;-77
2022/02/28 13:46:59;;;;;;;2.60;1.70;;;4.60;95.80;;;;;;6264420;28;20273;-78
2022/02/28 13:50:07;;;;;;;6.53;2.23;;;4.60;95.80;;;;;;6287682;28;20274;-76
2022/02/28 13:53:14;;;;;;;5.07;1.90;;;4.60;96.20;;;;;;6288326;28;20303;-76
2022/02/28 13:56:31;;;;;;;4.60;1.90;;;4.50;96.10;;;;;;6287935;28;20274;-76
2022/02/28 13:59:36;;;;;;;2.93;2.10;;;4.50;97.20;;;;;;6287902;28;20297;-77
2022/02/28 14:02:52;;;;;;;4.53;2.00;;;4.50;97.00;;;;;;6288065;28;20291;-76
2022/02/28 14:05:59;;;;;;;3.30;2.00;;;4.50;97.20;;;;;;6287751;28;20276;-77
2022/02/28 14:09:05;;;;;;;2.37;2.23;;;4.50;97.70;;;;;;6287661;28;20463;-76
2022/02/28 14:12:14;;;;;;;7.23;2.60;;;4.50;98.20;;;;;;6311012;28;20315;-76
2022/02/28 14:15:23;;;;;;;7.00;2.40;;;4.50;98.40;;;;;;6312671;28;20441;-76
2022/02/28 14:18:29;;;;;;;2.47;2.30;;;4.40;98.40;;;;;;6311978;28;20302;-76
2022/02/28 14:21:39;;;;;;;2.13;2.00;;;4.40;98.40;;;;;;6311955;28;20303;-76
2022/02/28 14:25:21;;;;;;;5.20;2.30;;;4.50;98.70;;;;;;6260638;28;20282;-76
2022/02/28 14:29:10;;;;;;;8.60;2.20;;;4.40;99.20;;;;;;6312062;28;20295;-76
2022/02/28 14:32:25;;;;;;;4.93;2.07;;;4.40;99.40;;;;;;6313307;28;20299;-76
2022/02/28 14:35:30;;;;;;;6.50;2.30;;;4.30;99.70;;;;;;6312976;28;20273;-76
2022/02/28 14:38:37;;;;;;;2.20;2.07;;;4.40;99.20;;;;;;6311547;28;20329;-76
2022/02/28 14:41:43;;;;;;;1.83;1.83;;;4.30;99.80;;;;;;6312344;28;20293;-76
2022/02/28 14:44:51;;;;;;;9.00;2.73;;;4.30;99.80;;;;;;6311987;28;20297;-76
2022/02/28 14:47:57;;;;;;;2.13;2.03;;;4.30;99.90;;;;;;6311262;28;20298;-76
2022/02/28 14:51:02;;;;;;;3.50;2.10;;;4.30;99.90;;;;;;6312333;28;20272;-76
2022/02/28 14:54:09;;;;;;;6.63;2.43;;;4.30;99.90;;;;;;6311288;28;20295;-76
2022/02/28 14:57:14;;;;;;;6.47;2.10;;;4.20;99.90;;;;;;6312026;28;20561;-76
2022/02/28 15:00:22;;;;;;;8.37;2.30;;;4.20;99.90;;;;;;6311922;28;20457;-77
2022/02/28 15:03:28;;;;;;;5.77;2.30;;;4.20;99.90;;;;;;6293729;28;20298;-77
2022/02/28 15:06:37;;;;;;;6.40;1.97;;;4.20;99.90;;;;;;6311457;28;20285;-76
2022/02/28 15:09:42;;;;;;;3.83;2.37;;;4.10;99.90;;;;;;6311606;28;20297;-77
2022/02/28 15:12:48;;;;;;;5.13;2.60;;;4.10;99.90;;;;;;6310764;28;20299;-77
2022/02/28 15:15:54;;;;;;;5.93;2.40;;;4.10;99.90;;;;;;6312134;28;20274;-76
2022/02/28 15:19:00;;;;;;;2.57;2.37;;;4.10;99.90;;;;;;6311753;28;20465;-77
2022/02/28 15:22:06;;;;;;;5.07;2.27;;;4.10;99.90;;;;;;6316735;28;20305;-77
2022/02/28 15:25:11;;;;;;;3.80;2.00;;;4.00;99.90;;;;;;6316144;28;20267;-77
2022/02/28 15:28:18;;;;;;;6.80;2.57;;;4.00;99.90;;;;;;6316682;28;20305;-77
2022/02/28 15:31:25;;;;;;;3.33;2.53;;;4.00;99.90;;;;;;6317283;28;20274;-76
2022/02/28 15:34:31;;;;;;;3.13;2.27;;;3.90;99.90;;;;;;6315387;28;20297;-77
2022/02/28 15:37:37;;;;;;;5.67;2.47;;;3.80;99.90;;;;;;6314528;28;20381;-77
2022/02/28 15:40:46;;;;;;;3.43;2.27;;;3.70;99.90;;;;;;6316289;28;20277;-77
2022/02/28 15:43:51;;;;;;;3.47;2.20;;;3.70;99.90;;;;;;6315931;28;20580;-76
2022/02/28 15:46:58;;;;;;;3.63;2.20;;;3.60;99.90;;;;;;6316993;28;20270;-76
2022/02/28 15:50:04;;;;;;;4.60;2.60;;;3.50;99.90;;;;;;6290217;28;20273;-76
2022/02/28 15:53:16;;;;;;;2.83;2.50;;;3.50;99.90;;;;;;6300829;28;20301;-76
2022/02/28 15:56:23;;;;;;;8.10;2.43;;;3.50;99.90;;;;;;6316070;28;20467;-77
2022/02/28 15:59:29;;;;;;;13.03;3.10;;;3.50;99.90;;;;;;6293461;28;20302;-76
2022/02/28 16:02:36;;;;;;;4.57;2.83;;;3.40;99.90;;;;;;6289670;28;20469;-76
2022/02/28 16:05:42;;;;;;;3.30;2.40;;;3.40;99.90;;;;;;6315968;28;20400;-76
2022/02/28 16:08:47;;;;;;;5.03;2.43;;;3.40;99.90;;;;;;6315352;28;20293;-77
2022/02/28 16:11:52;;;;;;;4.17;2.50;;;3.50;99.90;;;;;;6315005;28;20268;-76
2022/02/28 16:14:57;;;;;;;3.30;2.43;;;3.30;99.90;;;;;;6314698;28;20300;-76
2022/02/28 16:18:04;;;;;;;6.00;2.43;;;3.20;99.90;;;;;;6314549;28;20308;-76
2022/02/28 16:21:10;;;;;;;2.23;2.10;;;3.10;99.90;;;;;;6314445;28;20396;-76
2022/02/28 16:24:17;;;;;;;3.93;2.50;;;3.00;99.90;;;;;;6315366;28;20298;-77
2022/02/28 16:27:22;;;;;;;3.43;2.50;;;2.90;99.90;;;;;;6313928;28;20271;-77
2022/02/28 16:30:28;;;;;;;3.17;2.27;;;2.90;99.90;;;;;;6314825;28;20269;-76
2022/02/28 16:33:34;;;;;;;2.90;2.40;;;2.90;99.90;;;;;;6314760;28;20310;-76
2022/02/28 16:36:45;;;;;;;3.73;2.27;;;2.80;99.90;;;;;;6314699;28;20276;-76